Time;durP1;ratioP1;P1;durP2;ratioP2;P2;SDS_P1;SDS_P2;PMS_P1;PMS_P2;Temp;Humidity;BMP_temperature;BMP_pressure;BME280_temperature;BME280_humidity;BME280_pressure;Samples;Min_cycle;Max_cycle;Signal;HPM_P1;HPM_P2
2021/03/30 00:00:01;;;;;;;8.20;3.75;;;12.30;99.90;;;;;;5009055;28;20046;-88
2021/03/30 00:02:27;;;;;;;7.53;3.53;;;12.30;99.90;;;;;;4999322;28;20070;-88
2021/03/30 00:04:56;;;;;;;9.65;3.42;;;12.30;99.90;;;;;;5015278;28;20092;-88
2021/03/30 00:07:22;;;;;;;6.30;3.33;;;12.30;99.90;;;;;;5022082;28;20517;-88
2021/03/30 00:09:49;;;;;;;7.45;3.42;;;12.30;99.90;;;;;;5010913;28;20060;-88
2021/03/30 00:12:15;;;;;;;7.35;3.50;;;12.30;99.90;;;;;;5008726;28;20077;-87
2021/03/30 00:14:42;;;;;;;9.10;4.28;;;12.30;99.90;;;;;;4994859;28;20046;-88
2021/03/30 00:17:11;;;;;;;;;;;12.30;99.90;;;;;;4984384;28;20045;-88
2021/03/30 00:19:37;;;;;;;8.75;3.38;;;12.30;99.90;;;;;;5000954;28;19920;-88
2021/03/30 00:22:04;;;;;;;11.95;3.92;;;12.30;99.90;;;;;;4987063;28;20510;-89
2021/03/30 00:24:31;;;;;;;7.43;3.53;;;12.30;99.90;;;;;;4991066;28;20041;-88
2021/03/30 00:26:57;;;;;;;6.68;3.55;;;12.30;99.90;;;;;;4994670;28;20495;-87
2021/03/30 00:29:24;;;;;;;8.38;3.92;;;12.30;99.90;;;;;;4999179;28;20121;-87
2021/03/30 00:31:50;;;;;;;6.53;3.60;;;12.30;99.90;;;;;;4994781;28;20042;-87
2021/03/30 00:34:17;;;;;;;6.90;3.60;;;12.20;99.90;;;;;;4996613;28;20050;-87
2021/03/30 00:36:43;;;;;;;6.88;3.58;;;12.20;99.90;;;;;;4995174;28;20049;-88
2021/03/30 00:39:10;;;;;;;6.43;3.90;;;12.20;99.90;;;;;;5008416;28;20042;-87
2021/03/30 00:41:42;;;;;;;8.02;3.30;;;12.20;99.90;;;;;;4993019;28;20050;-88
2021/03/30 00:44:12;;;;;;;8.70;4.10;;;12.20;99.90;;;;;;4992934;28;20046;-88
2021/03/30 00:46:45;;;;;;;6.75;3.80;;;12.30;99.90;;;;;;5011365;28;20046;-87
2021/03/30 00:49:16;;;;;;;9.50;4.07;;;12.20;99.90;;;;;;4994782;28;20056;-87
2021/03/30 00:51:47;;;;;;;13.60;4.13;;;12.20;99.90;;;;;;4989669;28;20056;-88
2021/03/30 00:54:15;;;;;;;7.13;4.13;;;12.20;99.90;;;;;;4994550;28;20045;-88
2021/03/30 00:56:43;;;;;;;5.65;3.70;;;12.20;99.90;;;;;;4993834;28;20045;-88
2021/03/30 00:59:10;;;;;;;9.07;3.55;;;12.20;99.90;;;;;;5000188;28;20042;-88
2021/03/30 01:01:36;;;;;;;12.15;3.60;;;12.20;99.90;;;;;;4991415;28;20061;-87
2021/03/30 01:04:03;;;;;;;8.85;3.75;;;12.20;99.90;;;;;;4991598;28;20050;-87
2021/03/30 01:06:30;;;;;;;7.63;3.70;;;12.20;99.90;;;;;;4988272;28;20079;-88
2021/03/30 01:09:02;;;;;;;7.85;3.95;;;12.20;99.90;;;;;;4995037;28;20046;-87
2021/03/30 01:12:07;;;;;;;6.75;3.75;;;12.20;99.90;;;;;;4993634;28;20045;-88
2021/03/30 01:14:58;;;;;;;9.45;3.70;;;12.20;99.90;;;;;;4987849;28;20124;-88
2021/03/30 01:17:44;;;;;;;9.20;3.75;;;12.20;99.90;;;;;;4970404;28;20057;-87
2021/03/30 01:20:26;;;;;;;7.57;3.72;;;12.20;99.90;;;;;;5002415;28;20058;-87
2021/03/30 01:23:06;;;;;;;5.57;3.70;;;12.20;99.90;;;;;;5002746;28;20043;-87
2021/03/30 01:25:39;;;;;;;7.65;3.38;;;12.20;99.90;;;;;;4993282;28;20131;-86
2021/03/30 01:28:31;;;;;;;9.23;3.70;;;12.20;99.90;;;;;;5009836;28;20042;-87
2021/03/30 01:31:00;;;;;;;6.55;3.58;;;12.20;99.90;;;;;;4991339;28;20042;-87
2021/03/30 01:33:29;;;;;;;7.80;3.38;;;12.20;99.90;;;;;;4993557;28;20049;-87
2021/03/30 01:35:57;;;;;;;6.72;3.85;;;12.20;99.90;;;;;;4994396;28;20050;-88
2021/03/30 01:38:24;;;;;;;5.80;3.20;;;12.20;99.90;;;;;;4994403;28;20046;-88
2021/03/30 01:40:54;;;;;;;8.93;3.60;;;12.20;99.90;;;;;;4991902;28;20500;-87
2021/03/30 01:43:23;;;;;;;9.70;3.65;;;12.20;99.90;;;;;;4995535;28;20108;-88
2021/03/30 01:45:54;;;;;;;10.73;3.97;;;12.20;99.90;;;;;;4994058;28;20049;-87
2021/03/30 01:48:23;;;;;;;8.00;3.83;;;12.20;99.90;;;;;;4988408;28;20049;-87
2021/03/30 01:50:53;;;;;;;7.13;3.20;;;12.20;99.90;;;;;;4992527;28;20096;-87
2021/03/30 01:57:08;;;;;;;6.10;3.10;;;12.20;99.90;;;;;;5003536;28;20343;-88
2021/03/30 01:59:36;;;;;;;8.27;3.80;;;12.20;99.90;;;;;;4995853;28;20042;-87
2021/03/30 02:02:04;;;;;;;6.80;3.20;;;12.20;99.90;;;;;;4993910;28;20045;-87
2021/03/30 02:04:32;;;;;;;8.43;3.57;;;12.20;99.90;;;;;;4991533;28;20156;-87
2021/03/30 02:06:59;;;;;;;5.40;3.30;;;12.20;99.90;;;;;;4969466;28;20310;-87
2021/03/30 02:09:32;;;;;;;8.93;3.28;;;12.20;99.90;;;;;;4987236;28;20281;-88
2021/03/30 02:12:03;;;;;;;6.03;3.40;;;12.20;99.90;;;;;;4992151;28;20128;-87
2021/03/30 02:14:29;;;;;;;9.05;3.30;;;12.20;99.90;;;;;;5008446;28;20050;-87
2021/03/30 02:16:59;;;;;;;6.03;3.08;;;12.20;99.90;;;;;;5013833;28;20057;-88
2021/03/30 02:19:52;;;;;;;7.47;2.90;;;12.20;99.90;;;;;;5011733;28;20052;-87
2021/03/30 02:22:25;;;;;;;6.63;3.10;;;12.20;99.90;;;;;;5010296;28;20041;-87
2021/03/30 02:24:54;;;;;;;7.57;3.58;;;12.10;99.90;;;;;;5009354;28;20068;-88
2021/03/30 02:27:21;;;;;;;;;;;12.10;99.90;;;;;;5012033;28;20049;-88
2021/03/30 02:29:50;;;;;;;7.65;3.50;;;12.10;99.90;;;;;;5015834;28;19921;-87
2021/03/30 02:32:17;;;;;;;5.95;3.30;;;12.10;99.90;;;;;;5009383;28;20092;-87
2021/03/30 02:34:47;;;;;;;7.47;3.28;;;12.10;99.90;;;;;;4999409;28;20048;-87
2021/03/30 02:37:18;;;;;;;8.60;3.35;;;12.10;99.90;;;;;;5010861;28;20076;-87
2021/03/30 02:39:45;;;;;;;7.07;3.13;;;12.10;99.90;;;;;;5020542;28;20051;-88
2021/03/30 02:42:12;;;;;;;6.47;2.75;;;12.10;99.90;;;;;;5009333;28;20060;-87
2021/03/30 02:44:40;;;;;;;7.13;3.35;;;12.10;99.90;;;;;;5017756;28;20060;-87
2021/03/30 02:47:07;;;;;;;8.63;3.67;;;12.10;99.90;;;;;;5011964;28;20171;-88
2021/03/30 02:49:35;;;;;;;7.13;2.97;;;12.10;99.90;;;;;;5028524;28;20049;-87
2021/03/30 02:52:03;;;;;;;9.68;3.65;;;12.00;99.90;;;;;;5011066;28;20041;-87
2021/03/30 02:54:30;;;;;;;11.13;3.28;;;12.10;99.90;;;;;;5010774;28;20513;-87
2021/03/30 02:57:02;;;;;;;6.95;2.78;;;12.00;99.90;;;;;;5011550;28;20050;-87
2021/03/30 02:59:30;;;;;;;5.72;2.90;;;12.00;99.90;;;;;;5010441;28;20849;-87
2021/03/30 03:01:57;;;;;;;5.90;2.95;;;12.00;99.90;;;;;;5011095;28;20048;-87
2021/03/30 03:04:26;;;;;;;4.97;2.80;;;11.90;99.90;;;;;;5008970;28;20053;-87
2021/03/30 03:06:53;;;;;;;9.93;3.00;;;11.90;99.90;;;;;;5008233;28;20057;-87
2021/03/30 03:09:20;;;;;;;9.82;2.80;;;11.90;99.90;;;;;;5028469;28;20042;-88
2021/03/30 03:11:48;;;;;;;6.18;3.00;;;11.90;99.90;;;;;;5004221;28;20046;-87
2021/03/30 03:14:16;;;;;;;4.78;3.08;;;11.90;99.90;;;;;;5005274;28;20475;-88
2021/03/30 03:16:44;;;;;;;6.70;3.28;;;11.80;99.90;;;;;;5005263;28;20053;-87
2021/03/30 03:19:12;;;;;;;7.30;2.80;;;11.80;99.90;;;;;;5013909;28;20395;-87
2021/03/30 03:21:39;;;;;;;8.18;3.17;;;11.90;99.90;;;;;;5016938;28;20394;-87
2021/03/30 03:24:09;;;;;;;7.85;3.05;;;11.80;99.90;;;;;;5009807;28;20049;-88
2021/03/30 03:26:40;;;;;;;8.45;2.80;;;11.80;99.90;;;;;;5014655;28;20045;-87
2021/03/30 03:29:19;;;;;;;6.55;3.10;;;11.80;99.90;;;;;;5014906;28;20124;-88
2021/03/30 03:31:50;;;;;;;7.22;3.00;;;11.80;99.90;;;;;;5015622;28;20045;-86
2021/03/30 03:34:18;;;;;;;7.22;3.33;;;11.80;99.90;;;;;;5014510;28;20041;-87
2021/03/30 03:36:46;;;;;;;4.28;2.92;;;11.80;99.90;;;;;;5012860;28;20495;-87
2021/03/30 03:39:16;;;;;;;6.97;3.35;;;11.80;99.90;;;;;;5033033;28;20048;-88
2021/03/30 03:41:44;;;;;;;7.20;2.88;;;11.80;99.90;;;;;;5008520;28;20076;-88
2021/03/30 03:44:12;;;;;;;6.50;2.95;;;11.80;99.90;;;;;;5011036;28;20049;-88
2021/03/30 03:46:40;;;;;;;7.28;3.03;;;11.80;99.90;;;;;;5017181;28;20053;-87
2021/03/30 03:49:07;;;;;;;7.88;3.40;;;11.80;99.90;;;;;;5013251;28;20049;-88
2021/03/30 03:51:43;;;;;;;6.35;2.97;;;11.80;99.90;;;;;;5016029;28;20053;-88
2021/03/30 03:54:13;;;;;;;9.13;3.50;;;11.80;99.90;;;;;;5006358;28;20065;-87
2021/03/30 03:56:45;;;;;;;5.50;2.83;;;11.70;99.90;;;;;;5022576;28;20057;-89
2021/03/30 03:59:25;;;;;;;6.28;2.83;;;11.70;99.90;;;;;;5015825;28;20160;-88
2021/03/30 04:01:52;;;;;;;6.85;3.20;;;11.70;99.90;;;;;;5012037;28;20057;-88
2021/03/30 04:04:38;;;;;;;5.72;3.13;;;11.70;99.90;;;;;;5012875;28;20060;-88
2021/03/30 04:07:07;;;;;;;6.60;3.30;;;11.70;99.90;;;;;;5023916;28;20494;-88
2021/03/30 04:09:35;;;;;;;7.88;3.22;;;11.70;99.90;;;;;;5014963;28;20124;-88
2021/03/30 04:12:02;;;;;;;6.05;3.08;;;11.70;99.90;;;;;;5010512;28;20391;-88
2021/03/30 04:14:32;;;;;;;7.47;2.85;;;11.70;99.90;;;;;;5005761;28;20061;-87
2021/03/30 04:16:58;;;;;;;6.13;3.08;;;11.70;99.90;;;;;;5001253;28;20058;-88
2021/03/30 04:19:25;;;;;;;6.20;2.97;;;11.70;99.90;;;;;;4995522;28;20045;-88
2021/03/30 04:21:51;;;;;;;7.82;3.20;;;11.70;99.90;;;;;;4998551;28;20058;-88
2021/03/30 04:24:20;;;;;;;5.97;2.88;;;11.70;99.90;;;;;;5004770;28;20041;-88
2021/03/30 04:26:46;;;;;;;5.47;2.72;;;11.60;99.90;;;;;;5002296;28;20069;-88
2021/03/30 04:29:13;;;;;;;7.05;3.13;;;11.70;99.90;;;;;;5017327;28;20487;-88
2021/03/30 04:31:39;;;;;;;7.82;3.33;;;11.70;99.90;;;;;;4998501;28;20049;-88
2021/03/30 04:34:06;;;;;;;5.70;2.30;;;11.70;99.90;;;;;;4995594;28;20050;-88
2021/03/30 04:36:33;;;;;;;4.88;2.58;;;11.60;99.90;;;;;;4999781;28;20042;-88
2021/03/30 04:38:59;;;;;;;5.15;2.72;;;11.70;99.90;;;;;;4983141;28;20143;-88
2021/03/30 04:41:26;;;;;;;4.32;2.90;;;11.70;99.90;;;;;;4999397;28;20045;-89
2021/03/30 04:43:52;;;;;;;7.72;3.30;;;11.60;99.90;;;;;;5002423;28;20068;-89
2021/03/30 04:46:21;;;;;;;6.20;3.15;;;11.70;99.90;;;;;;4994533;28;20048;-89
2021/03/30 04:48:50;;;;;;;5.32;2.85;;;11.70;99.90;;;;;;5016852;28;20075;-91
2021/03/30 04:51:18;;;;;;;10.13;3.47;;;11.70;99.90;;;;;;4988614;28;20049;-88
2021/03/30 04:53:45;;;;;;;6.93;2.83;;;11.70;99.90;;;;;;5000644;28;20107;-90
2021/03/30 04:56:12;;;;;;;4.80;2.90;;;11.70;99.90;;;;;;4999547;28;20049;-90
2021/03/30 04:58:41;;;;;;;5.90;2.70;;;11.70;99.90;;;;;;5008472;28;20077;-91
2021/03/30 05:01:07;;;;;;;10.82;3.42;;;11.70;99.90;;;;;;4993865;28;20086;-90
2021/03/30 05:03:34;;;;;;;5.53;3.00;;;11.80;99.90;;;;;;5000614;28;20172;-89
2021/03/30 05:06:03;;;;;;;6.65;3.25;;;11.80;99.90;;;;;;5007700;28;20044;-90
2021/03/30 05:08:30;;;;;;;7.50;3.20;;;11.80;99.90;;;;;;4986341;28;20364;-90
2021/03/30 05:10:57;;;;;;;4.97;3.20;;;11.80;99.90;;;;;;5013733;28;20042;-90
2021/03/30 05:13:23;;;;;;;7.53;2.95;;;11.80;99.90;;;;;;5016099;28;20072;-88
2021/03/30 05:15:52;;;;;;;11.80;3.83;;;11.90;99.90;;;;;;4988197;28;20060;-90
2021/03/30 05:18:19;;;;;;;;;;;11.80;99.90;;;;;;4989719;28;20069;-90
2021/03/30 05:20:46;;;;;;;4.70;2.65;;;11.80;99.90;;;;;;4991674;28;19925;-89
2021/03/30 05:23:15;;;;;;;7.03;2.95;;;11.80;99.90;;;;;;4984661;28;20050;-89
2021/03/30 05:25:42;;;;;;;7.35;2.90;;;11.80;99.90;;;;;;5000013;28;20491;-89
2021/03/30 05:28:10;;;;;;;11.27;3.10;;;11.80;99.90;;;;;;4984820;28;20180;-89
2021/03/30 05:30:36;;;;;;;7.95;3.05;;;11.80;99.90;;;;;;5000729;28;20069;-89
2021/03/30 05:33:03;;;;;;;6.07;3.00;;;11.80;99.90;;;;;;4997326;28;20056;-89
2021/03/30 05:35:30;;;;;;;6.05;3.38;;;11.80;99.90;;;;;;5004942;28;20041;-90
2021/03/30 05:37:57;;;;;;;9.95;3.90;;;11.80;99.90;;;;;;5000681;28;20136;-90
2021/03/30 05:40:23;;;;;;;6.95;3.30;;;11.80;99.90;;;;;;4992609;28;20137;-90
2021/03/30 05:42:50;;;;;;;6.55;3.10;;;11.80;99.90;;;;;;4990583;28;20042;-90
2021/03/30 05:45:21;;;;;;;6.78;3.28;;;11.80;99.90;;;;;;5003134;28;20046;-90
2021/03/30 05:47:53;;;;;;;5.68;2.78;;;11.80;99.90;;;;;;4977256;28;20145;-90
2021/03/30 05:50:26;;;;;;;8.00;3.08;;;11.70;99.90;;;;;;4991245;28;20100;-90
2021/03/30 05:53:04;;;;;;;7.47;3.17;;;11.80;99.90;;;;;;4983597;28;20448;-92
2021/03/30 05:55:44;;;;;;;6.75;3.17;;;11.70;99.90;;;;;;5001258;28;20465;-91
2021/03/30 05:58:12;;;;;;;7.07;3.20;;;11.70;99.90;;;;;;5004737;28;20041;-91
2021/03/30 06:00:43;;;;;;;6.85;3.20;;;11.70;99.90;;;;;;4999732;28;20041;-90
2021/03/30 06:03:32;;;;;;;8.60;3.50;;;11.70;99.90;;;;;;4996325;28;20050;-90
2021/03/30 06:06:02;;;;;;;;;;;11.70;99.90;;;;;;4912376;28;20053;-88
2021/03/30 06:08:30;;;;;;;;;;;11.70;99.90;;;;;;4990101;28;20013;-90
2021/03/30 06:11:03;;;;;;;6.68;2.75;;;11.70;99.90;;;;;;4990056;28;19952;-89
2021/03/30 06:13:56;;;;;;;6.05;3.05;;;11.70;99.90;;;;;;5006679;28;20044;-89
2021/03/30 06:16:36;;;;;;;6.50;3.33;;;11.70;99.90;;;;;;5008854;28;20053;-90
2021/03/30 06:19:12;;;;;;;6.45;3.20;;;11.70;99.90;;;;;;5012551;28;20045;-90
2021/03/30 06:21:42;;;;;;;6.95;3.40;;;11.70;99.90;;;;;;5012638;28;20543;-90
2021/03/30 06:24:21;;;;;;;7.68;2.90;;;11.70;99.90;;;;;;5011573;28;20046;-90
2021/03/30 06:26:49;;;;;;;11.48;3.88;;;11.70;99.90;;;;;;4999375;28;20046;-89
2021/03/30 06:29:34;;;;;;;9.13;3.20;;;11.70;99.90;;;;;;5009997;28;20097;-90
2021/03/30 06:32:03;;;;;;;8.60;3.30;;;11.80;99.90;;;;;;5019219;28;20090;-89
2021/03/30 06:34:31;;;;;;;;;;;11.80;99.90;;;;;;5011560;28;20136;-90
2021/03/30 06:36:58;;;;;;;7.43;3.00;;;11.90;99.90;;;;;;5013037;28;20302;-89
2021/03/30 06:39:38;;;;;;;5.93;2.97;;;11.90;99.90;;;;;;5022765;28;20527;-89
2021/03/30 06:44:36;;;;;;;8.02;3.20;;;12.00;99.90;;;;;;5026997;28;20041;-89
2021/03/30 06:47:12;;;;;;;10.68;3.42;;;12.00;99.90;;;;;;5001417;28;20054;-89
2021/03/30 06:49:58;;;;;;;7.60;3.13;;;12.10;99.90;;;;;;4996400;28;20053;-89
2021/03/30 06:52:37;;;;;;;10.57;3.30;;;12.10;99.90;;;;;;5001069;28;20038;-89
2021/03/30 06:55:13;;;;;;;6.95;3.35;;;12.20;99.90;;;;;;5006544;28;20155;-90
2021/03/30 06:57:45;;;;;;;8.32;3.22;;;12.20;99.90;;;;;;5017091;28;20398;-90
2021/03/30 07:00:35;;;;;;;8.35;3.65;;;12.30;99.90;;;;;;5016959;28;20049;-90
2021/03/30 07:03:16;;;;;;;7.10;3.50;;;12.30;99.90;;;;;;5008612;28;20045;-89
2021/03/30 07:05:52;;;;;;;8.55;3.30;;;12.40;99.90;;;;;;4983929;28;20042;-89
2021/03/30 07:08:20;;;;;;;7.72;3.35;;;12.50;99.90;;;;;;5010749;28;20487;-89
2021/03/30 07:10:48;;;;;;;7.18;3.75;;;12.50;99.90;;;;;;5000542;28;20103;-89
2021/03/30 07:13:17;;;;;;;8.18;3.78;;;12.60;99.90;;;;;;5009957;28;20125;-89
2021/03/30 07:15:44;;;;;;;5.90;3.33;;;12.70;99.90;;;;;;5014640;28;20049;-89
2021/03/30 07:18:25;;;;;;;8.05;3.53;;;12.80;99.90;;;;;;5013333;28;20095;-89
2021/03/30 07:21:15;;;;;;;8.73;3.60;;;12.80;99.90;;;;;;5013368;28;20057;-89
2021/03/30 07:23:46;;;;;;;6.03;3.20;;;12.90;99.90;;;;;;5002031;28;20467;-89
2021/03/30 07:26:15;;;;;;;10.52;3.65;;;13.00;99.90;;;;;;5003313;28;20079;-89
2021/03/30 07:29:00;;;;;;;11.30;3.67;;;13.10;99.90;;;;;;5013448;28;20049;-89
2021/03/30 07:31:39;;;;;;;6.47;3.08;;;13.20;99.90;;;;;;5020121;28;20068;-89
2021/03/30 07:34:11;;;;;;;7.82;3.30;;;13.30;99.90;;;;;;5013082;28;20356;-89
2021/03/30 07:37:13;;;;;;;5.97;3.05;;;13.40;99.90;;;;;;5009943;28;20120;-89
2021/03/30 07:39:48;;;;;;;8.15;2.80;;;13.60;99.90;;;;;;5002900;28;20051;-89
2021/03/30 07:42:15;;;;;;;8.60;3.03;;;13.70;99.90;;;;;;5009482;28;20156;-89
2021/03/30 07:44:47;;;;;;;6.55;2.97;;;13.80;99.90;;;;;;5000763;28;20038;-89
2021/03/30 07:47:16;;;;;;;5.82;3.17;;;13.90;99.90;;;;;;5011040;28;20109;-89
2021/03/30 07:49:50;;;;;;;8.90;3.20;;;14.10;99.90;;;;;;5021363;28;20060;-89
2021/03/30 07:52:18;;;;;;;10.43;3.03;;;14.20;99.90;;;;;;5023778;28;20038;-90
2021/03/30 07:55:05;;;;;;;;;;;14.30;99.90;;;;;;5012653;28;20140;-89
2021/03/30 07:58:07;;;;;;;6.45;3.30;;;14.40;99.90;;;;;;4994363;28;19927;-89
2021/03/30 08:00:36;;;;;;;9.88;3.30;;;14.60;99.90;;;;;;5011109;28;20092;-89
2021/03/30 08:03:05;;;;;;;8.23;3.08;;;14.70;99.90;;;;;;5010837;28;20076;-89
2021/03/30 08:05:32;;;;;;;7.20;3.20;;;14.80;99.90;;;;;;5003983;28;20042;-89
2021/03/30 08:07:59;;;;;;;9.27;2.88;;;15.00;99.90;;;;;;4998096;28;20137;-89
2021/03/30 08:10:35;;;;;;;7.07;2.83;;;15.10;99.90;;;;;;5014537;28;20384;-89
2021/03/30 08:13:36;;;;;;;9.57;3.30;;;15.20;99.90;;;;;;4992893;28;20472;-88
2021/03/30 08:16:08;;;;;;;7.25;3.25;;;15.30;99.90;;;;;;5007016;28;20046;-89
2021/03/30 08:18:37;;;;;;;4.72;2.90;;;15.40;99.90;;;;;;5018404;28;20133;-89
2021/03/30 08:21:10;;;;;;;8.40;3.10;;;15.50;99.90;;;;;;5008273;28;20049;-89
2021/03/30 08:23:52;;;;;;;10.20;3.13;;;15.60;99.90;;;;;;5011017;28;20045;-89
2021/03/30 08:26:27;;;;;;;10.43;3.75;;;15.70;99.90;;;;;;5008924;28;20046;-89
2021/03/30 08:29:01;;;;;;;9.23;3.67;;;15.80;99.90;;;;;;5002882;28;20054;-89
2021/03/30 08:31:35;;;;;;;6.30;3.03;;;15.90;99.90;;;;;;5011734;28;20052;-89
2021/03/30 08:34:18;;;;;;;6.03;3.20;;;16.00;99.90;;;;;;5008556;28;20042;-87
2021/03/30 08:36:56;;;;;;;7.35;3.35;;;16.10;99.90;;;;;;5008203;28;20069;-88
2021/03/30 08:39:25;;;;;;;8.45;3.90;;;16.20;99.90;;;;;;5010681;28;20050;-89
2021/03/30 08:41:53;;;;;;;10.27;3.55;;;16.30;99.90;;;;;;5013524;28;20069;-89
2021/03/30 08:44:38;;;;;;;10.25;3.40;;;16.40;99.90;;;;;;4996075;28;20044;-89
2021/03/30 08:47:36;;;;;;;9.45;3.03;;;16.50;99.90;;;;;;5007164;28;20503;-89
2021/03/30 08:50:12;;;;;;;9.30;3.45;;;16.70;99.90;;;;;;5007760;28;20038;-89
2021/03/30 08:52:39;;;;;;;10.95;3.60;;;16.80;99.90;;;;;;5010828;28;20038;-89
2021/03/30 08:55:08;;;;;;;8.40;3.13;;;16.90;99.90;;;;;;5008004;28;20042;-89
2021/03/30 08:57:41;;;;;;;8.80;3.35;;;16.90;99.90;;;;;;5009842;28;20066;-88
2021/03/30 09:00:13;;;;;;;9.15;3.17;;;17.00;99.90;;;;;;5009489;28;20117;-89
2021/03/30 09:02:42;;;;;;;6.60;3.42;;;17.10;99.90;;;;;;5010174;28;20046;-89
2021/03/30 09:05:19;;;;;;;10.95;3.38;;;17.20;99.90;;;;;;5010265;28;20053;-89
2021/03/30 09:07:47;;;;;;;8.32;3.17;;;17.30;99.90;;;;;;5009842;28;20089;-89
2021/03/30 09:10:15;;;;;;;;;;;17.40;99.90;;;;;;5009975;28;20053;-89
2021/03/30 09:12:46;;;;;;;9.32;3.35;;;17.40;99.90;;;;;;5007363;28;20355;-88
2021/03/30 09:15:15;;;;;;;8.95;3.53;;;17.50;99.90;;;;;;4983979;28;20498;-89
2021/03/30 09:17:56;;;;;;;10.90;3.53;;;17.60;99.90;;;;;;4978854;28;20108;-89
2021/03/30 09:20:23;;;;;;;12.85;3.72;;;17.70;99.90;;;;;;4981293;28;20041;-88
2021/03/30 09:22:51;;;;;;;7.07;2.97;;;17.70;99.90;;;;;;4992175;28;20423;-88
2021/03/30 09:27:54;;;;;;;8.38;2.97;;;17.90;99.90;;;;;;5009828;28;20137;-89
2021/03/30 09:30:22;;;;;;;12.05;3.10;;;18.00;99.90;;;;;;4992997;28;20042;-89
2021/03/30 09:32:51;;;;;;;6.40;3.20;;;18.00;99.90;;;;;;4984095;28;20054;-89
2021/03/30 09:35:21;;;;;;;11.90;4.00;;;18.00;99.90;;;;;;4993173;28;20077;-89
2021/03/30 09:37:57;;;;;;;9.00;3.60;;;18.10;99.90;;;;;;4991417;28;20105;-89
2021/03/30 09:40:29;;;;;;;12.32;3.80;;;18.10;99.90;;;;;;4988826;28;20058;-90
2021/03/30 09:43:00;;;;;;;8.52;3.65;;;18.10;99.90;;;;;;4993794;28;20475;-89
2021/03/30 09:45:33;;;;;;;9.30;3.90;;;18.20;99.90;;;;;;4965776;28;20129;-89
2021/03/30 09:48:08;;;;;;;8.73;3.22;;;18.20;99.90;;;;;;4985570;28;20482;-89
2021/03/30 09:50:49;;;;;;;10.15;3.60;;;18.30;99.80;;;;;;5002749;28;20042;-89
2021/03/30 09:53:20;;;;;;;11.27;2.83;;;18.40;99.80;;;;;;4989753;28;20129;-89
2021/03/30 09:55:48;;;;;;;12.18;3.83;;;18.40;99.80;;;;;;4986389;28;20048;-89
2021/03/30 09:58:19;;;;;;;9.80;3.63;;;18.50;99.70;;;;;;4991591;28;20050;-89
2021/03/30 10:00:49;;;;;;;12.50;3.88;;;18.60;99.60;;;;;;4985317;28;20540;-89
2021/03/30 10:03:23;;;;;;;13.52;3.63;;;18.70;99.50;;;;;;4980561;28;20846;-89
2021/03/30 10:05:50;;;;;;;8.63;3.70;;;18.80;99.50;;;;;;4990822;28;20073;-89
2021/03/30 10:08:21;;;;;;;13.07;3.40;;;18.90;99.50;;;;;;4992881;28;20450;-88
2021/03/30 10:10:54;;;;;;;10.38;3.35;;;18.90;99.40;;;;;;5002934;28;20419;-89
2021/03/30 10:13:36;;;;;;;12.55;3.38;;;19.10;99.30;;;;;;4993929;28;20045;-88
2021/03/30 10:16:07;;;;;;;12.38;2.95;;;19.10;99.10;;;;;;5011245;28;20058;-89
2021/03/30 10:18:36;;;;;;;22.80;4.35;;;19.20;98.70;;;;;;5019174;28;20065;-88
2021/03/30 10:21:16;;;;;;;10.23;3.38;;;19.20;98.70;;;;;;5027500;28;20029;-88
2021/03/30 10:23:47;;;;;;;10.68;3.28;;;19.30;98.40;;;;;;5015373;28;20049;-89
2021/03/30 10:26:27;;;;;;;11.48;3.70;;;19.20;98.40;;;;;;5012908;28;20049;-89
2021/03/30 10:29:03;;;;;;;10.60;3.20;;;19.10;98.60;;;;;;5013254;28;20037;-89
2021/03/30 10:31:46;;;;;;;13.13;3.75;;;19.10;98.40;;;;;;5010162;28;20081;-89
2021/03/30 10:34:22;;;;;;;12.43;3.47;;;19.00;98.40;;;;;;5010804;28;21068;-89
2021/03/30 10:36:54;;;;;;;15.13;3.40;;;19.00;98.60;;;;;;5006609;28;20476;-89
2021/03/30 10:39:29;;;;;;;8.27;3.42;;;19.00;98.80;;;;;;5010834;28;20042;-89
2021/03/30 10:42:17;;;;;;;10.77;2.95;;;19.10;98.70;;;;;;5011652;28;20451;-89
2021/03/30 10:44:56;;;;;;;10.02;3.47;;;19.10;98.30;;;;;;5009204;28;20104;-89
2021/03/30 10:47:34;;;;;;;9.52;3.08;;;19.20;98.60;;;;;;5004419;28;20087;-89
2021/03/30 10:50:06;;;;;;;;;;;19.20;98.20;;;;;;5009297;28;20049;-89
2021/03/30 10:52:34;;;;;;;8.90;3.75;;;19.20;97.90;;;;;;5010246;28;19928;-88
2021/03/30 10:55:07;;;;;;;10.85;3.53;;;19.10;98.10;;;;;;5001610;28;20042;-88
2021/03/30 10:57:35;;;;;;;8.82;3.35;;;19.00;98.00;;;;;;5008465;28;20037;-88
2021/03/30 11:00:05;;;;;;;12.70;3.58;;;18.90;98.10;;;;;;5007391;28;20103;-88
2021/03/30 11:02:32;;;;;;;9.98;3.42;;;18.90;98.20;;;;;;5003411;28;20382;-88
2021/03/30 11:04:59;;;;;;;10.10;3.50;;;19.00;98.30;;;;;;5010063;28;20103;-88
2021/03/30 11:07:25;;;;;;;10.45;3.70;;;19.00;98.30;;;;;;5010639;28;20502;-88
2021/03/30 11:09:52;;;;;;;12.23;3.38;;;19.10;98.30;;;;;;5015052;28;20053;-89
2021/03/30 11:12:21;;;;;;;10.68;3.50;;;19.10;98.20;;;;;;5029095;28;20052;-88
2021/03/30 11:14:48;;;;;;;14.48;3.70;;;19.20;98.20;;;;;;5014937;28;20419;-88
2021/03/30 11:17:15;;;;;;;7.05;3.33;;;19.30;98.10;;;;;;5007235;28;20050;-88
2021/03/30 11:19:41;;;;;;;8.80;3.25;;;19.40;98.00;;;;;;4999602;28;20050;-88
2021/03/30 11:22:09;;;;;;;9.43;3.30;;;19.50;98.00;;;;;;5010771;28;20046;-89
2021/03/30 11:24:39;;;;;;;10.45;3.35;;;19.60;97.70;;;;;;5012525;28;20045;-88
2021/03/30 11:27:09;;;;;;;12.68;4.03;;;19.50;97.30;;;;;;5005390;28;20476;-91
2021/03/30 11:29:45;;;;;;;13.10;3.42;;;19.60;97.20;;;;;;4998308;28;20076;-89
2021/03/30 11:32:34;;;;;;;10.48;3.20;;;19.60;97.30;;;;;;5011821;28;20048;-89
2021/03/30 11:39:57;;;;;;;11.77;3.90;;;19.70;96.90;;;;;;5042516;28;20397;-91
2021/03/30 11:42:25;;;;;;;13.77;4.00;;;19.70;96.80;;;;;;4999415;28;20055;-90
2021/03/30 11:44:52;;;;;;;15.07;4.03;;;19.60;96.60;;;;;;5015493;28;20057;-90
2021/03/30 11:47:19;;;;;;;12.05;4.00;;;19.60;96.70;;;;;;4995338;28;20111;-90
2021/03/30 11:49:46;;;;;;;8.40;3.22;;;19.60;96.70;;;;;;5000153;28;20048;-90
2021/03/30 11:52:12;;;;;;;13.32;4.03;;;19.50;96.60;;;;;;5013445;28;20053;-90
2021/03/30 11:54:41;;;;;;;12.35;3.80;;;19.50;96.80;;;;;;5016450;28;20073;-89
2021/03/30 11:57:07;;;;;;;11.25;3.40;;;19.40;96.60;;;;;;5015088;28;20072;-89
2021/03/30 11:59:35;;;;;;;7.38;3.22;;;19.40;96.70;;;;;;5012859;28;20476;-89
2021/03/30 12:02:05;;;;;;;9.38;3.47;;;19.40;96.70;;;;;;5004020;28;20065;-89
2021/03/30 12:04:33;;;;;;;14.38;3.50;;;19.40;96.80;;;;;;5014807;28;20387;-89
2021/03/30 12:06:59;;;;;;;11.32;3.90;;;19.40;96.80;;;;;;5023171;28;20486;-89
2021/03/30 12:09:26;;;;;;;12.00;3.53;;;19.50;96.70;;;;;;5003612;28;20049;-89
2021/03/30 12:11:52;;;;;;;10.32;3.67;;;19.50;96.60;;;;;;5014591;28;20041;-89
2021/03/30 12:14:19;;;;;;;10.00;3.40;;;19.50;96.70;;;;;;4992926;28;20049;-90
2021/03/30 12:16:51;;;;;;;13.27;3.83;;;19.60;96.60;;;;;;4999876;28;20037;-89
2021/03/30 12:19:19;;;;;;;12.23;3.70;;;19.50;96.40;;;;;;5004943;28;20061;-89
2021/03/30 12:21:46;;;;;;;8.75;3.80;;;19.50;96.40;;;;;;4995342;28;20066;-89
2021/03/30 12:24:14;;;;;;;9.57;3.35;;;19.50;96.30;;;;;;4991365;28;20057;-89
2021/03/30 12:26:41;;;;;;;10.32;4.00;;;19.50;96.40;;;;;;4997483;28;20046;-89
2021/03/30 12:29:07;;;;;;;12.98;3.92;;;19.40;96.30;;;;;;5007082;28;20501;-89
2021/03/30 12:31:35;;;;;;;9.30;3.50;;;19.40;96.30;;;;;;4996252;28;20045;-89
2021/03/30 12:34:06;;;;;;;13.70;3.60;;;19.40;96.50;;;;;;4994300;28;20049;-89
2021/03/30 12:36:34;;;;;;;12.63;3.70;;;19.30;96.40;;;;;;4994426;28;20042;-90
2021/03/30 12:39:04;;;;;;;12.43;3.20;;;19.30;96.30;;;;;;4998802;28;20068;-90
2021/03/30 12:41:30;;;;;;;10.70;3.90;;;19.30;96.30;;;;;;4991108;28;20468;-90
2021/03/30 12:43:57;;;;;;;7.95;3.60;;;19.30;96.40;;;;;;4999655;28;20049;-89
2021/03/30 12:46:24;;;;;;;11.55;3.33;;;19.40;96.60;;;;;;4991219;28;20047;-89
2021/03/30 12:48:50;;;;;;;13.80;4.03;;;19.50;96.70;;;;;;5011487;28;20053;-89
2021/03/30 12:51:17;;;;;;;13.20;4.20;;;19.50;96.10;;;;;;5014607;28;20057;-89
2021/03/30 12:53:44;;;;;;;9.38;3.35;;;19.50;95.80;;;;;;5002249;28;20049;-91
2021/03/30 12:56:10;;;;;;;13.43;3.95;;;19.50;95.90;;;;;;5011107;28;20041;-90
2021/03/30 12:58:41;;;;;;;11.02;3.53;;;19.50;95.90;;;;;;4990785;28;20065;-89
2021/03/30 13:01:12;;;;;;;13.18;3.50;;;19.50;95.70;;;;;;5000390;28;20058;-90
2021/03/30 13:03:48;;;;;;;10.40;3.70;;;19.40;95.70;;;;;;4998106;28;20046;-89
2021/03/30 13:06:15;;;;;;;13.40;3.88;;;19.50;95.70;;;;;;5018523;28;20387;-89
2021/03/30 13:08:42;;;;;;;15.80;4.13;;;19.50;95.80;;;;;;4999381;28;20042;-89
2021/03/30 13:11:08;;;;;;;13.13;4.10;;;19.60;95.90;;;;;;5003366;28;20050;-89
2021/03/30 13:13:35;;;;;;;9.00;3.55;;;19.70;95.90;;;;;;4991170;28;720826;-89
2021/03/30 13:16:02;;;;;;;13.73;3.65;;;19.80;95.80;;;;;;5007634;28;20048;-89
2021/03/30 13:18:28;;;;;;;13.88;3.92;;;19.90;95.50;;;;;;5012942;28;20124;-89